createdAt,value
2018-10-19T00:02:00.198Z,99204.33
2018-10-19T00:07:04.213Z,99199.42
2018-10-19T00:12:08.265Z,99200.16
2018-10-19T00:17:12.367Z,99201.77
2018-10-19T00:22:16.370Z,99203.92
2018-10-19T00:27:20.633Z,99196.34
2018-10-19T00:32:24.623Z,99196.76
2018-10-19T00:37:28.603Z,99187.25
2018-10-19T00:42:32.592Z,99196.76
2018-10-19T00:47:36.594Z,99191.73
2018-10-19T00:52:40.558Z,99192.87
2018-10-19T00:57:44.729Z,99184.98
2018-10-19T01:02:48.707Z,99183.55
2018-10-19T01:07:52.731Z,99176.91
2018-10-19T01:12:58.485Z,99174.96
2018-10-19T01:18:02.451Z,99179.04
2018-10-19T01:23:06.549Z,99177.59
2018-10-19T01:28:10.975Z,99186.89
2018-10-19T01:33:15.048Z,99177.89
2018-10-19T01:38:18.951Z,99181.38
2018-10-19T01:43:22.941Z,99180.84
2018-10-19T01:48:27.905Z,99185.55
2018-10-19T01:53:31.874Z,99191.69
2018-10-19T01:58:35.835Z,99185.92
2018-10-19T02:03:40.902Z,99189.00
2018-10-19T02:08:44.879Z,99190.41
2018-10-19T02:13:48.858Z,99193.45
2018-10-19T02:18:52.824Z,99191.41
2018-10-19T02:23:56.834Z,99193.03
2018-10-19T02:29:00.837Z,99198.05
2018-10-19T02:34:05.002Z,99204.57
2018-10-19T02:39:09.126Z,99201.59
2018-10-19T02:44:13.050Z,99199.84
2018-10-19T02:49:17.035Z,99205.03
2018-10-19T02:54:21.030Z,99211.58
2018-10-19T02:59:25.104Z,99206.61
2018-10-19T03:04:29.099Z,99209.39
2018-10-19T03:09:33.086Z,99220.28
2018-10-19T03:14:37.171Z,99217.30
2018-10-19T03:19:41.370Z,99212.77
2018-10-19T03:24:45.503Z,99220.26
2018-10-19T03:29:49.640Z,99213.41
2018-10-19T03:34:53.774Z,99209.37
2018-10-19T03:39:57.804Z,99205.34
2018-10-19T03:45:02.001Z,99211.97
2018-10-19T03:50:06.344Z,99213.70
2018-10-19T03:55:10.552Z,99210.42
2018-10-19T04:00:14.560Z,99213.44
2018-10-19T04:05:18.633Z,99214.47
2018-10-19T04:10:23.010Z,99209.23
2018-10-19T04:15:27.070Z,99214.28
2018-10-19T04:20:31.084Z,99222.10
2018-10-19T04:25:35.612Z,99221.48
2018-10-19T04:30:39.671Z,99220.15
2018-10-19T04:35:43.681Z,99217.70
2018-10-19T04:40:47.721Z,99216.17
2018-10-19T04:45:51.815Z,99217.70
2018-10-19T04:50:55.916Z,99217.00
2018-10-19T04:56:00.177Z,99223.96
2018-10-19T05:01:04.206Z,99226.28
2018-10-19T05:06:08.322Z,99233.94
2018-10-19T05:11:12.420Z,99235.75
2018-10-19T05:16:16.420Z,99237.15
2018-10-19T05:21:20.449Z,99237.28
2018-10-19T05:26:24.670Z,99239.73
2018-10-19T05:31:28.753Z,99245.73
2018-10-19T05:36:32.845Z,99242.25
2018-10-19T05:41:37.117Z,99255.70
2018-10-19T05:46:41.131Z,99260.44
2018-10-19T05:51:45.154Z,99262.02
2018-10-19T05:56:49.539Z,99275.77
2018-10-19T06:01:53.611Z,99282.66
2018-10-19T06:06:57.622Z,99286.36
2018-10-19T06:12:01.716Z,99288.62
2018-10-19T06:17:06.575Z,99288.86
2018-10-19T06:22:10.625Z,99286.77
2018-10-19T06:27:14.756Z,99299.23
2018-10-19T06:32:19.047Z,99295.20
2018-10-19T06:37:23.055Z,99304.64
2018-10-19T06:42:27.411Z,99301.41
2018-10-19T06:47:31.429Z,99307.39
2018-10-19T06:52:35.435Z,99307.73
2018-10-19T06:57:39.449Z,99314.99
2018-10-19T07:02:43.570Z,99321.69
2018-10-19T07:07:47.620Z,99320.77
2018-10-19T07:12:51.905Z,99328.02
2018-10-19T07:17:55.910Z,99333.05
2018-10-19T07:28:01.493Z,99336.89
2018-10-19T07:33:03.922Z,99345.17
2018-10-19T07:38:06.510Z,99346.00
2018-10-19T07:43:08.783Z,99346.58
2018-10-19T07:48:11.295Z,99344.57
2018-10-19T07:53:13.494Z,99349.29
2018-10-19T07:58:15.857Z,99356.38
2018-10-19T08:03:18.240Z,99358.56
2018-10-19T08:08:20.559Z,99361.00
2018-10-19T08:13:23.105Z,99364.69
2018-10-19T08:18:25.437Z,99369.41
2018-10-19T08:23:27.788Z,99365.77
2018-10-19T08:28:30.118Z,99371.31
2018-10-19T08:33:32.606Z,99364.34
2018-10-19T08:38:34.907Z,99371.23
2018-10-19T08:43:37.235Z,99369.58
2018-10-19T08:48:39.570Z,99375.70
2018-10-19T08:53:41.924Z,99381.81
2018-10-19T08:58:44.253Z,99380.94
2018-10-19T09:03:46.655Z,99378.29
2018-10-19T09:08:48.973Z,99382.45
2018-10-19T09:13:51.394Z,99395.98
2018-10-19T09:18:53.722Z,99393.77
2018-10-19T09:23:56.047Z,99394.01
2018-10-19T09:28:58.594Z,99393.61
2018-10-19T09:34:00.982Z,99389.34
2018-10-19T09:39:04.864Z,99388.08
2018-10-19T09:44:07.228Z,99385.94
2018-10-19T09:49:11.538Z,99387.77
2018-10-19T09:54:13.841Z,99385.91
2018-10-19T09:59:16.245Z,99393.64
2018-10-19T10:04:18.665Z,99389.14
2018-10-19T10:09:20.990Z,99393.84
2018-10-19T10:14:23.311Z,99388.63
2018-10-19T10:19:25.738Z,99386.45
2018-10-19T10:24:28.085Z,99386.89
2018-10-19T10:29:30.412Z,99390.17
2018-10-19T10:34:32.863Z,99386.41
2018-10-19T10:39:35.309Z,99380.80
2018-10-19T10:44:37.727Z,99388.28
2018-10-19T10:49:40.066Z,99383.09
2018-10-19T10:54:42.390Z,99384.69
2018-10-19T10:59:44.710Z,99379.33
2018-10-19T11:04:47.109Z,99377.45
2018-10-19T11:09:49.493Z,99369.20
2018-10-19T11:14:51.826Z,99359.47
2018-10-19T11:19:54.161Z,99357.84
2018-10-19T11:24:56.533Z,99357.42
2018-10-19T11:29:58.930Z,99350.40
2018-10-19T11:35:01.370Z,99350.12
2018-10-19T11:40:20.399Z,99351.95
2018-10-19T11:45:23.711Z,99342.14
2018-10-19T11:50:26.029Z,99341.22
2018-10-19T11:55:28.374Z,99344.66
2018-10-19T12:00:30.741Z,99329.32
2018-10-19T12:05:33.152Z,99329.03
2018-10-19T12:10:35.635Z,99328.20
2018-10-19T12:15:37.932Z,99324.61
2018-10-19T12:20:40.391Z,99317.56
2018-10-19T12:25:42.757Z,99320.73
2018-10-19T12:30:45.088Z,99323.92
2018-10-19T12:35:47.542Z,99316.02
2018-10-19T12:40:49.895Z,99319.29
2018-10-19T12:46:38.155Z,99318.27
2018-10-19T12:51:40.592Z,99306.00
2018-10-19T12:56:42.947Z,99295.35
2018-10-19T13:01:45.277Z,99288.50
2018-10-19T13:06:47.645Z,99287.27
2018-10-19T13:11:50.043Z,99284.92
2018-10-19T13:16:52.362Z,99280.83
2018-10-19T13:21:54.911Z,99276.64
2018-10-19T13:26:57.331Z,99279.69
2018-10-19T13:31:59.616Z,99283.58
2018-10-19T13:37:01.997Z,99280.20
2018-10-19T13:42:04.671Z,99273.34
2018-10-19T13:47:07.057Z,99264.97
2018-10-19T13:52:09.411Z,99266.41
2018-10-19T13:57:11.762Z,99256.77
2018-10-19T14:02:14.105Z,99250.52
2018-10-19T14:07:16.769Z,99252.56
2018-10-19T14:12:19.786Z,99252.89
2018-10-19T14:17:23.252Z,99250.73
2018-10-19T14:22:25.793Z,99252.06
2018-10-19T14:27:28.148Z,99249.72
2018-10-19T14:32:30.579Z,99254.00
2018-10-19T14:37:33.048Z,99256.86
2018-10-19T14:42:35.491Z,99254.84
2018-10-19T14:47:38.609Z,99261.17
2018-10-19T14:52:40.906Z,99263.33
2018-10-19T14:57:43.236Z,99259.28
2018-10-19T15:02:45.811Z,99253.78
2018-10-19T15:07:49.093Z,99247.34
2018-10-19T15:12:51.597Z,99254.39
2018-10-19T15:17:53.947Z,99255.48
2018-10-19T15:22:56.299Z,99262.41
2018-10-19T15:27:58.928Z,99265.78
2018-10-19T15:33:01.341Z,99275.97
2018-10-19T15:38:03.751Z,99279.52
2018-10-19T15:43:06.074Z,99279.91
2018-10-19T15:48:08.474Z,99282.94
2018-10-19T15:53:10.822Z,99274.89
2018-10-19T15:58:13.337Z,99278.67
2018-10-19T16:03:16.100Z,99273.81
2018-10-19T16:08:18.538Z,99266.72
2018-10-19T16:13:20.884Z,99272.27
2018-10-19T16:18:23.234Z,99279.34
2018-10-19T16:23:25.757Z,99276.84
2018-10-19T16:28:28.169Z,99264.13
2018-10-19T16:33:30.481Z,99274.56
2018-10-19T16:38:32.857Z,99277.77
2018-10-19T16:43:35.251Z,99277.34
2018-10-19T16:48:37.702Z,99276.38
2018-10-19T16:53:40.256Z,99286.42
2018-10-19T16:58:42.665Z,99273.75
2018-10-19T17:03:45.110Z,99280.64
2018-10-19T17:08:47.509Z,99289.97
2018-10-19T17:13:49.831Z,99284.80
2018-10-19T17:18:52.306Z,99290.02
2018-10-19T17:23:54.838Z,99293.55
2018-10-19T17:28:57.203Z,99295.15
2018-10-19T17:33:59.681Z,99294.70
2018-10-19T17:39:02.111Z,99299.06
2018-10-19T17:44:05.179Z,99294.31
2018-10-19T17:49:07.777Z,99298.34
2018-10-19T17:54:12.248Z,99298.26
2018-10-19T17:59:14.926Z,99299.77
2018-10-19T18:04:17.248Z,99310.06
2018-10-19T18:09:19.869Z,99319.44
2018-10-19T18:14:22.208Z,99320.08
2018-10-19T18:19:24.547Z,99337.92
2018-10-19T18:24:26.914Z,99343.55
2018-10-19T18:29:29.259Z,99344.24
2018-10-19T18:34:31.589Z,99353.66
2018-10-19T18:39:34.088Z,99364.36
2018-10-19T18:44:36.428Z,99369.70
2018-10-19T18:49:39.606Z,99372.63
2018-10-19T18:54:41.917Z,99371.81
2018-10-19T18:59:44.308Z,99367.54
2018-10-19T19:04:46.759Z,99372.50
2018-10-19T19:09:54.872Z,99371.17
2018-10-19T19:14:57.209Z,99375.53
2018-10-19T19:20:05.219Z,99379.84
2018-10-19T19:25:13.399Z,99391.13
2018-10-19T19:30:16.257Z,99393.73
2018-10-19T19:35:18.840Z,99396.98
2018-10-19T19:40:21.904Z,99412.02
2018-10-19T19:45:24.244Z,99408.24
2018-10-19T19:50:26.614Z,99412.02
2018-10-19T19:55:28.989Z,99417.62
2018-10-19T20:00:32.462Z,99404.70
2018-10-19T20:05:34.853Z,99410.02
2018-10-19T20:10:37.633Z,99418.30
2018-10-19T20:15:40.107Z,99414.86
2018-10-19T20:20:42.440Z,99416.17
2018-10-19T20:25:44.843Z,99419.53
2018-10-19T20:30:47.247Z,99416.61
2018-10-19T20:35:49.626Z,99418.09
2018-10-19T20:40:52.320Z,99414.61
2018-10-19T20:45:54.893Z,99406.19
2018-10-19T20:50:57.329Z,99415.14
2018-10-19T20:55:59.720Z,99412.09
2018-10-19T21:01:02.231Z,99419.10
2018-10-19T21:11:18.068Z,99420.48
2018-10-19T21:16:20.617Z,99413.91
2018-10-19T21:21:23.021Z,99409.66
2018-10-19T21:26:25.492Z,99409.25
2018-10-19T21:31:28.000Z,99406.27
2018-10-19T21:36:30.349Z,99402.28
2018-10-19T21:41:32.740Z,99408.11
2018-10-19T21:46:35.126Z,99401.19
2018-10-19T21:51:37.598Z,99399.59
2018-10-19T21:56:39.903Z,99407.79
2018-10-19T22:01:42.295Z,99411.55
2018-10-19T22:06:44.616Z,99416.81
2018-10-19T22:11:46.947Z,99419.77
2018-10-19T22:16:49.295Z,99411.81
2018-10-19T22:21:51.595Z,99417.32
2018-10-19T22:26:54.045Z,99418.80
2018-10-19T22:31:56.396Z,99423.44
2018-10-19T22:36:58.779Z,99420.10
2018-10-19T22:42:01.125Z,99414.61
2018-10-19T22:47:03.562Z,99420.89
2018-10-19T22:52:05.897Z,99418.06
2018-10-19T22:57:08.214Z,99425.31
2018-10-19T23:02:10.599Z,99421.77
2018-10-19T23:07:12.963Z,99426.02
2018-10-19T23:12:15.301Z,99415.80
2018-10-19T23:17:17.766Z,99405.57
2018-10-19T23:22:20.088Z,99400.00
2018-10-19T23:27:22.449Z,99408.14
2018-10-19T23:32:24.880Z,99402.12
2018-10-19T23:37:27.249Z,99419.98
2018-10-19T23:42:29.586Z,99414.41
2018-10-19T23:47:31.951Z,99413.91
2018-10-19T23:52:34.366Z,99424.47
2018-10-19T23:57:36.687Z,99424.47
